sensor_id;sensor_type;location;lat;lon;timestamp;P1;durP1;ratioP1;P2;durP2;ratioP2
13611;SDS011;6877;51.436;6.774;2023-07-16T00:01:38;3.72;;;2.30;;
13611;SDS011;6877;51.436;6.774;2023-07-16T00:04:10;4.95;;;2.30;;
13611;SDS011;6877;51.436;6.774;2023-07-16T00:06:36;4.13;;;2.67;;
13611;SDS011;6877;51.436;6.774;2023-07-16T00:09:03;3.75;;;2.97;;
13611;SDS011;6877;51.436;6.774;2023-07-16T00:11:29;4.70;;;2.50;;
13611;SDS011;6877;51.436;6.774;2023-07-16T00:13:56;6.55;;;3.83;;
13611;SDS011;6877;51.436;6.774;2023-07-16T00:16:27;8.18;;;3.15;;
13611;SDS011;6877;51.436;6.774;2023-07-16T00:18:54;3.88;;;3.15;;
13611;SDS011;6877;51.436;6.774;2023-07-16T00:21:25;4.18;;;2.78;;
13611;SDS011;6877;51.436;6.774;2023-07-16T00:23:57;6.85;;;3.05;;
13611;SDS011;6877;51.436;6.774;2023-07-16T00:26:23;3.15;;;2.45;;
13611;SDS011;6877;51.436;6.774;2023-07-16T00:28:50;4.80;;;2.90;;
13611;SDS011;6877;51.436;6.774;2023-07-16T00:31:16;8.52;;;2.90;;
13611;SDS011;6877;51.436;6.774;2023-07-16T00:33:43;4.63;;;3.10;;
13611;SDS011;6877;51.436;6.774;2023-07-16T00:36:09;4.88;;;2.58;;
13611;SDS011;6877;51.436;6.774;2023-07-16T00:38:41;3.10;;;2.33;;
13611;SDS011;6877;51.436;6.774;2023-07-16T00:41:13;5.15;;;3.15;;
13611;SDS011;6877;51.436;6.774;2023-07-16T00:43:45;9.18;;;3.03;;
13611;SDS011;6877;51.436;6.774;2023-07-16T00:46:17;6.45;;;3.30;;
13611;SDS011;6877;51.436;6.774;2023-07-16T00:48:48;7.00;;;3.03;;
13611;SDS011;6877;51.436;6.774;2023-07-16T00:51:15;4.35;;;2.90;;
13611;SDS011;6877;51.436;6.774;2023-07-16T00:53:42;4.05;;;3.30;;
13611;SDS011;6877;51.436;6.774;2023-07-16T00:56:09;8.80;;;4.07;;
13611;SDS011;6877;51.436;6.774;2023-07-16T00:58:36;6.43;;;3.50;;
13611;SDS011;6877;51.436;6.774;2023-07-16T01:01:03;6.82;;;3.88;;
13611;SDS011;6877;51.436;6.774;2023-07-16T01:03:29;6.35;;;3.40;;
13611;SDS011;6877;51.436;6.774;2023-07-16T01:08:57;6.63;;;3.15;;
13611;SDS011;6877;51.436;6.774;2023-07-16T01:11:33;6.07;;;3.47;;
13611;SDS011;6877;51.436;6.774;2023-07-16T01:14:06;6.30;;;3.20;;
13611;SDS011;6877;51.436;6.774;2023-07-16T01:16:40;5.65;;;3.35;;
13611;SDS011;6877;51.436;6.774;2023-07-16T01:19:12;5.22;;;3.60;;
13611;SDS011;6877;51.436;6.774;2023-07-16T01:24:44;6.18;;;3.97;;
13611;SDS011;6877;51.436;6.774;2023-07-16T01:27:52;3.83;;;3.25;;
13611;SDS011;6877;51.436;6.774;2023-07-16T01:30:24;4.35;;;3.08;;
13611;SDS011;6877;51.436;6.774;2023-07-16T01:32:52;4.32;;;3.63;;
13611;SDS011;6877;51.436;6.774;2023-07-16T01:35:19;7.47;;;3.70;;
13611;SDS011;6877;51.436;6.774;2023-07-16T01:37:52;7.45;;;3.55;;
13611;SDS011;6877;51.436;6.774;2023-07-16T01:40:18;5.80;;;3.17;;
13611;SDS011;6877;51.436;6.774;2023-07-16T01:42:50;8.43;;;3.58;;
13611;SDS011;6877;51.436;6.774;2023-07-16T01:45:21;11.40;;;4.20;;
13611;SDS011;6877;51.436;6.774;2023-07-16T01:50:19;8.73;;;3.38;;
13611;SDS011;6877;51.436;6.774;2023-07-16T01:52:50;6.93;;;3.40;;
13611;SDS011;6877;51.436;6.774;2023-07-16T01:55:22;4.50;;;3.28;;
13611;SDS011;6877;51.436;6.774;2023-07-16T01:57:54;8.07;;;4.22;;
13611;SDS011;6877;51.436;6.774;2023-07-16T02:00:26;5.88;;;3.97;;
13611;SDS011;6877;51.436;6.774;2023-07-16T02:02:57;5.32;;;3.67;;
13611;SDS011;6877;51.436;6.774;2023-07-16T02:05:24;6.13;;;3.70;;
13611;SDS011;6877;51.436;6.774;2023-07-16T02:07:50;8.88;;;3.80;;
13611;SDS011;6877;51.436;6.774;2023-07-16T02:10:17;7.22;;;3.40;;
13611;SDS011;6877;51.436;6.774;2023-07-16T02:12:43;10.32;;;4.07;;
13611;SDS011;6877;51.436;6.774;2023-07-16T02:15:10;7.63;;;3.15;;
13611;SDS011;6877;51.436;6.774;2023-07-16T02:17:36;5.97;;;4.20;;
13611;SDS011;6877;51.436;6.774;2023-07-16T02:20:08;8.93;;;4.05;;
13611;SDS011;6877;51.436;6.774;2023-07-16T02:22:37;6.55;;;3.72;;
13611;SDS011;6877;51.436;6.774;2023-07-16T02:25:03;8.50;;;3.97;;
13611;SDS011;6877;51.436;6.774;2023-07-16T02:27:31;8.95;;;3.55;;
13611;SDS011;6877;51.436;6.774;2023-07-16T02:29:57;7.55;;;4.43;;
13611;SDS011;6877;51.436;6.774;2023-07-16T02:32:24;11.55;;;4.22;;
13611;SDS011;6877;51.436;6.774;2023-07-16T02:34:55;8.13;;;4.40;;
13611;SDS011;6877;51.436;6.774;2023-07-16T02:37:22;11.07;;;3.97;;
13611;SDS011;6877;51.436;6.774;2023-07-16T02:39:53;9.18;;;4.78;;
13611;SDS011;6877;51.436;6.774;2023-07-16T02:42:25;8.80;;;4.15;;
13611;SDS011;6877;51.436;6.774;2023-07-16T02:44:52;9.45;;;3.92;;
13611;SDS011;6877;51.436;6.774;2023-07-16T02:47:23;10.20;;;3.28;;
13611;SDS011;6877;51.436;6.774;2023-07-16T02:49:55;9.00;;;3.83;;
13611;SDS011;6877;51.436;6.774;2023-07-16T02:52:26;5.60;;;3.55;;
13611;SDS011;6877;51.436;6.774;2023-07-16T02:54:53;7.32;;;3.63;;
13611;SDS011;6877;51.436;6.774;2023-07-16T02:59:47;8.27;;;4.35;;
13611;SDS011;6877;51.436;6.774;2023-07-16T03:02:13;5.10;;;3.30;;
13611;SDS011;6877;51.436;6.774;2023-07-16T03:04:40;6.85;;;3.85;;
13611;SDS011;6877;51.436;6.774;2023-07-16T03:07:12;7.95;;;4.35;;
13611;SDS011;6877;51.436;6.774;2023-07-16T03:09:39;6.35;;;3.80;;
13611;SDS011;6877;51.436;6.774;2023-07-16T03:12:05;8.88;;;3.92;;
13611;SDS011;6877;51.436;6.774;2023-07-16T03:14:32;7.65;;;3.25;;
13611;SDS011;6877;51.436;6.774;2023-07-16T03:16:58;6.25;;;4.32;;
13611;SDS011;6877;51.436;6.774;2023-07-16T03:19:25;11.63;;;4.10;;
13611;SDS011;6877;51.436;6.774;2023-07-16T03:21:51;7.35;;;3.85;;
13611;SDS011;6877;51.436;6.774;2023-07-16T03:24:18;12.98;;;4.15;;
13611;SDS011;6877;51.436;6.774;2023-07-16T03:26:44;12.68;;;4.72;;
13611;SDS011;6877;51.436;6.774;2023-07-16T03:29:11;21.83;;;5.03;;
13611;SDS011;6877;51.436;6.774;2023-07-16T03:31:37;18.00;;;4.65;;
13611;SDS011;6877;51.436;6.774;2023-07-16T03:34:04;11.20;;;4.38;;
13611;SDS011;6877;51.436;6.774;2023-07-16T03:36:35;10.27;;;4.72;;
13611;SDS011;6877;51.436;6.774;2023-07-16T03:39:02;11.82;;;3.80;;
13611;SDS011;6877;51.436;6.774;2023-07-16T03:41:33;9.98;;;4.03;;
13611;SDS011;6877;51.436;6.774;2023-07-16T03:44:00;10.88;;;4.95;;
13611;SDS011;6877;51.436;6.774;2023-07-16T03:46:26;7.18;;;3.78;;
13611;SDS011;6877;51.436;6.774;2023-07-16T03:48:53;14.23;;;4.63;;
13611;SDS011;6877;51.436;6.774;2023-07-16T03:51:24;8.48;;;3.80;;
13611;SDS011;6877;51.436;6.774;2023-07-16T03:53:51;9.90;;;4.35;;
13611;SDS011;6877;51.436;6.774;2023-07-16T03:56:17;10.02;;;3.95;;
13611;SDS011;6877;51.436;6.774;2023-07-16T03:58:44;12.82;;;4.40;;
13611;SDS011;6877;51.436;6.774;2023-07-16T04:01:10;11.55;;;4.72;;
13611;SDS011;6877;51.436;6.774;2023-07-16T04:03:42;12.45;;;5.15;;
13611;SDS011;6877;51.436;6.774;2023-07-16T04:06:13;10.90;;;4.40;;
13611;SDS011;6877;51.436;6.774;2023-07-16T04:08:44;12.75;;;4.50;;
13611;SDS011;6877;51.436;6.774;2023-07-16T04:11:16;6.40;;;3.58;;
13611;SDS011;6877;51.436;6.774;2023-07-16T04:13:42;7.38;;;3.17;;
13611;SDS011;6877;51.436;6.774;2023-07-16T04:16:14;8.25;;;3.53;;
13611;SDS011;6877;51.436;6.774;2023-07-16T04:18:45;9.85;;;3.38;;
13611;SDS011;6877;51.436;6.774;2023-07-16T04:21:12;14.13;;;3.42;;
13611;SDS011;6877;51.436;6.774;2023-07-16T04:23:43;8.05;;;3.30;;
13611;SDS011;6877;51.436;6.774;2023-07-16T04:26:09;11.48;;;3.47;;
13611;SDS011;6877;51.436;6.774;2023-07-16T04:28:41;8.88;;;4.63;;
13611;SDS011;6877;51.436;6.774;2023-07-16T04:31:07;10.13;;;3.72;;
13611;SDS011;6877;51.436;6.774;2023-07-16T04:33:34;7.25;;;3.78;;
13611;SDS011;6877;51.436;6.774;2023-07-16T04:36:05;7.75;;;3.60;;
13611;SDS011;6877;51.436;6.774;2023-07-16T04:38:31;7.15;;;3.40;;
13611;SDS011;6877;51.436;6.774;2023-07-16T04:41:03;8.27;;;3.63;;
13611;SDS011;6877;51.436;6.774;2023-07-16T04:43:34;6.80;;;3.22;;
13611;SDS011;6877;51.436;6.774;2023-07-16T04:46:06;28.88;;;4.13;;
13611;SDS011;6877;51.436;6.774;2023-07-16T04:48:32;6.53;;;3.42;;
13611;SDS011;6877;51.436;6.774;2023-07-16T04:50:59;9.23;;;3.53;;
13611;SDS011;6877;51.436;6.774;2023-07-16T04:53:25;15.43;;;4.03;;
13611;SDS011;6877;51.436;6.774;2023-07-16T04:55:52;13.63;;;4.90;;
13611;SDS011;6877;51.436;6.774;2023-07-16T04:58:18;7.03;;;3.17;;
13611;SDS011;6877;51.436;6.774;2023-07-16T05:00:45;9.02;;;3.33;;
13611;SDS011;6877;51.436;6.774;2023-07-16T05:03:11;9.30;;;3.60;;
13611;SDS011;6877;51.436;6.774;2023-07-16T05:05:43;12.52;;;3.50;;
13611;SDS011;6877;51.436;6.774;2023-07-16T05:08:09;5.40;;;3.22;;
13611;SDS011;6877;51.436;6.774;2023-07-16T05:10:40;6.35;;;3.28;;
13611;SDS011;6877;51.436;6.774;2023-07-16T05:13:07;10.75;;;4.30;;
13611;SDS011;6877;51.436;6.774;2023-07-16T05:15:33;9.55;;;3.92;;
13611;SDS011;6877;51.436;6.774;2023-07-16T05:18:00;13.45;;;3.92;;
13611;SDS011;6877;51.436;6.774;2023-07-16T05:20:26;10.27;;;4.40;;
13611;SDS011;6877;51.436;6.774;2023-07-16T05:22:57;12.73;;;3.92;;
13611;SDS011;6877;51.436;6.774;2023-07-16T05:25:24;9.90;;;3.63;;
13611;SDS011;6877;51.436;6.774;2023-07-16T05:27:56;8.23;;;3.22;;
13611;SDS011;6877;51.436;6.774;2023-07-16T05:30:22;6.97;;;3.90;;
13611;SDS011;6877;51.436;6.774;2023-07-16T05:32:54;12.35;;;4.82;;
13611;SDS011;6877;51.436;6.774;2023-07-16T05:35:20;11.20;;;5.30;;
13611;SDS011;6877;51.436;6.774;2023-07-16T05:37:47;13.98;;;5.55;;
13611;SDS011;6877;51.436;6.774;2023-07-16T05:40:18;14.48;;;5.00;;
13611;SDS011;6877;51.436;6.774;2023-07-16T05:42:44;12.07;;;3.70;;
13611;SDS011;6877;51.436;6.774;2023-07-16T05:45:11;11.75;;;4.93;;
13611;SDS011;6877;51.436;6.774;2023-07-16T05:47:37;10.38;;;5.07;;
13611;SDS011;6877;51.436;6.774;2023-07-16T05:50:09;7.45;;;3.85;;
13611;SDS011;6877;51.436;6.774;2023-07-16T05:52:40;14.05;;;4.28;;
13611;SDS011;6877;51.436;6.774;2023-07-16T05:55:07;10.38;;;5.53;;
13611;SDS011;6877;51.436;6.774;2023-07-16T05:57:38;16.00;;;4.00;;
13611;SDS011;6877;51.436;6.774;2023-07-16T06:00:05;8.75;;;3.75;;
13611;SDS011;6877;51.436;6.774;2023-07-16T06:02:33;12.90;;;3.55;;
13611;SDS011;6877;51.436;6.774;2023-07-16T06:05:04;13.40;;;4.10;;
13611;SDS011;6877;51.436;6.774;2023-07-16T06:07:36;10.55;;;4.22;;
13611;SDS011;6877;51.436;6.774;2023-07-16T06:10:08;7.40;;;4.00;;
13611;SDS011;6877;51.436;6.774;2023-07-16T06:12:35;10.45;;;5.00;;
13611;SDS011;6877;51.436;6.774;2023-07-16T06:15:06;8.23;;;4.45;;
13611;SDS011;6877;51.436;6.774;2023-07-16T06:17:33;12.35;;;4.47;;
13611;SDS011;6877;51.436;6.774;2023-07-16T06:20:00;11.80;;;4.93;;
13611;SDS011;6877;51.436;6.774;2023-07-16T06:22:28;7.68;;;4.35;;
13611;SDS011;6877;51.436;6.774;2023-07-16T06:24:59;10.48;;;3.63;;
13611;SDS011;6877;51.436;6.774;2023-07-16T06:27:26;8.13;;;3.75;;
13611;SDS011;6877;51.436;6.774;2023-07-16T06:29:57;8.48;;;4.38;;
13611;SDS011;6877;51.436;6.774;2023-07-16T06:32:24;9.70;;;4.65;;
13611;SDS011;6877;51.436;6.774;2023-07-16T06:34:50;9.63;;;4.68;;
13611;SDS011;6877;51.436;6.774;2023-07-16T06:37:17;10.20;;;4.25;;
13611;SDS011;6877;51.436;6.774;2023-07-16T06:39:43;12.68;;;5.22;;
13611;SDS011;6877;51.436;6.774;2023-07-16T06:42:09;11.80;;;4.20;;
13611;SDS011;6877;51.436;6.774;2023-07-16T06:44:36;17.15;;;4.85;;
13611;SDS011;6877;51.436;6.774;2023-07-16T06:47:07;11.38;;;4.82;;
13611;SDS011;6877;51.436;6.774;2023-07-16T06:49:39;15.30;;;5.30;;
13611;SDS011;6877;51.436;6.774;2023-07-16T06:52:05;15.52;;;5.43;;
13611;SDS011;6877;51.436;6.774;2023-07-16T06:54:32;7.65;;;4.45;;
13611;SDS011;6877;51.436;6.774;2023-07-16T06:57:04;11.82;;;4.95;;
13611;SDS011;6877;51.436;6.774;2023-07-16T06:59:30;9.15;;;4.82;;
13611;SDS011;6877;51.436;6.774;2023-07-16T07:01:57;8.10;;;3.88;;
13611;SDS011;6877;51.436;6.774;2023-07-16T07:04:23;12.15;;;4.55;;
13611;SDS011;6877;51.436;6.774;2023-07-16T07:06:55;10.45;;;4.97;;
13611;SDS011;6877;51.436;6.774;2023-07-16T07:09:21;13.82;;;4.05;;
13611;SDS011;6877;51.436;6.774;2023-07-16T07:11:53;15.20;;;6.05;;
13611;SDS011;6877;51.436;6.774;2023-07-16T07:14:19;14.48;;;4.15;;
13611;SDS011;6877;51.436;6.774;2023-07-16T07:16:46;8.85;;;4.90;;
13611;SDS011;6877;51.436;6.774;2023-07-16T07:19:18;13.85;;;4.82;;
13611;SDS011;6877;51.436;6.774;2023-07-16T07:21:49;8.40;;;4.47;;
13611;SDS011;6877;51.436;6.774;2023-07-16T07:24:16;10.20;;;4.38;;
13611;SDS011;6877;51.436;6.774;2023-07-16T07:26:47;9.13;;;4.97;;
13611;SDS011;6877;51.436;6.774;2023-07-16T07:29:14;22.83;;;5.47;;
13611;SDS011;6877;51.436;6.774;2023-07-16T07:31:45;13.85;;;6.57;;
13611;SDS011;6877;51.436;6.774;2023-07-16T07:34:16;9.82;;;4.63;;
13611;SDS011;6877;51.436;6.774;2023-07-16T07:36:43;12.27;;;4.93;;
13611;SDS011;6877;51.436;6.774;2023-07-16T07:39:09;11.18;;;4.72;;
13611;SDS011;6877;51.436;6.774;2023-07-16T07:41:36;10.57;;;4.72;;
13611;SDS011;6877;51.436;6.774;2023-07-16T07:44:07;8.07;;;3.97;;
13611;SDS011;6877;51.436;6.774;2023-07-16T07:46:34;9.95;;;4.45;;
13611;SDS011;6877;51.436;6.774;2023-07-16T07:49:00;10.98;;;4.47;;
13611;SDS011;6877;51.436;6.774;2023-07-16T07:51:32;11.90;;;4.28;;
13611;SDS011;6877;51.436;6.774;2023-07-16T07:53:59;12.18;;;4.40;;
13611;SDS011;6877;51.436;6.774;2023-07-16T07:56:26;10.48;;;4.47;;
13611;SDS011;6877;51.436;6.774;2023-07-16T07:58:57;10.23;;;4.30;;
13611;SDS011;6877;51.436;6.774;2023-07-16T08:01:23;10.95;;;5.00;;
13611;SDS011;6877;51.436;6.774;2023-07-16T08:03:55;6.07;;;3.78;;
13611;SDS011;6877;51.436;6.774;2023-07-16T08:06:26;15.32;;;5.07;;
13611;SDS011;6877;51.436;6.774;2023-07-16T08:08:53;8.75;;;5.30;;
13611;SDS011;6877;51.436;6.774;2023-07-16T08:11:19;10.00;;;4.05;;
13611;SDS011;6877;51.436;6.774;2023-07-16T08:13:46;11.25;;;4.90;;
13611;SDS011;6877;51.436;6.774;2023-07-16T08:16:12;8.18;;;4.38;;
13611;SDS011;6877;51.436;6.774;2023-07-16T08:18:41;8.70;;;3.60;;
13611;SDS011;6877;51.436;6.774;2023-07-16T08:21:10;6.30;;;3.92;;
13611;SDS011;6877;51.436;6.774;2023-07-16T08:23:41;9.63;;;3.83;;
13611;SDS011;6877;51.436;6.774;2023-07-16T08:26:13;8.82;;;3.65;;
13611;SDS011;6877;51.436;6.774;2023-07-16T08:28:39;7.25;;;4.20;;
13611;SDS011;6877;51.436;6.774;2023-07-16T08:31:06;4.72;;;3.40;;
13611;SDS011;6877;51.436;6.774;2023-07-16T08:33:37;9.43;;;4.05;;
13611;SDS011;6877;51.436;6.774;2023-07-16T08:36:09;11.02;;;4.35;;
13611;SDS011;6877;51.436;6.774;2023-07-16T08:38:41;7.72;;;3.95;;
13611;SDS011;6877;51.436;6.774;2023-07-16T08:41:12;9.20;;;3.80;;
13611;SDS011;6877;51.436;6.774;2023-07-16T08:43:41;6.55;;;3.40;;
13611;SDS011;6877;51.436;6.774;2023-07-16T08:46:13;12.73;;;4.65;;
13611;SDS011;6877;51.436;6.774;2023-07-16T08:48:41;9.80;;;3.88;;
13611;SDS011;6877;51.436;6.774;2023-07-16T08:51:09;8.25;;;3.97;;
13611;SDS011;6877;51.436;6.774;2023-07-16T08:53:42;10.75;;;3.85;;
13611;SDS011;6877;51.436;6.774;2023-07-16T08:56:09;8.73;;;3.70;;
13611;SDS011;6877;51.436;6.774;2023-07-16T08:58:36;6.90;;;4.32;;
13611;SDS011;6877;51.436;6.774;2023-07-16T09:01:03;6.72;;;3.65;;
13611;SDS011;6877;51.436;6.774;2023-07-16T09:03:37;8.82;;;3.35;;
13611;SDS011;6877;51.436;6.774;2023-07-16T09:06:04;8.90;;;3.80;;
13611;SDS011;6877;51.436;6.774;2023-07-16T09:08:30;12.02;;;3.65;;
13611;SDS011;6877;51.436;6.774;2023-07-16T09:10:57;9.05;;;3.58;;
13611;SDS011;6877;51.436;6.774;2023-07-16T09:13:24;5.57;;;3.53;;
13611;SDS011;6877;51.436;6.774;2023-07-16T09:15:59;10.05;;;3.28;;
13611;SDS011;6877;51.436;6.774;2023-07-16T09:18:30;9.30;;;3.78;;
13611;SDS011;6877;51.436;6.774;2023-07-16T09:20:58;7.90;;;4.13;;
13611;SDS011;6877;51.436;6.774;2023-07-16T09:23:29;10.60;;;3.70;;
13611;SDS011;6877;51.436;6.774;2023-07-16T09:25:56;4.68;;;3.03;;
13611;SDS011;6877;51.436;6.774;2023-07-16T09:28:28;7.78;;;3.60;;
13611;SDS011;6877;51.436;6.774;2023-07-16T09:31:02;10.82;;;4.00;;
13611;SDS011;6877;51.436;6.774;2023-07-16T09:33:34;5.93;;;2.88;;
13611;SDS011;6877;51.436;6.774;2023-07-16T09:36:02;6.88;;;4.03;;
13611;SDS011;6877;51.436;6.774;2023-07-16T09:38:34;5.45;;;3.50;;
13611;SDS011;6877;51.436;6.774;2023-07-16T09:41:05;7.65;;;3.60;;
13611;SDS011;6877;51.436;6.774;2023-07-16T09:43:32;4.97;;;2.95;;
13611;SDS011;6877;51.436;6.774;2023-07-16T09:45:59;6.10;;;3.28;;
13611;SDS011;6877;51.436;6.774;2023-07-16T09:48:31;7.55;;;3.25;;
13611;SDS011;6877;51.436;6.774;2023-07-16T09:50:58;7.05;;;3.63;;
13611;SDS011;6877;51.436;6.774;2023-07-16T09:53:25;7.82;;;3.85;;
13611;SDS011;6877;51.436;6.774;2023-07-16T09:55:54;9.93;;;3.97;;
13611;SDS011;6877;51.436;6.774;2023-07-16T09:58:21;15.00;;;3.70;;
13611;SDS011;6877;51.436;6.774;2023-07-16T10:00:50;10.30;;;4.10;;
13611;SDS011;6877;51.436;6.774;2023-07-16T10:03:17;6.97;;;4.13;;
13611;SDS011;6877;51.436;6.774;2023-07-16T10:05:44;6.07;;;3.70;;
13611;SDS011;6877;51.436;6.774;2023-07-16T10:08:17;8.38;;;4.43;;
13611;SDS011;6877;51.436;6.774;2023-07-16T10:10:52;9.00;;;4.10;;
13611;SDS011;6877;51.436;6.774;2023-07-16T10:13:23;7.72;;;4.30;;
13611;SDS011;6877;51.436;6.774;2023-07-16T10:15:50;12.63;;;4.43;;
13611;SDS011;6877;51.436;6.774;2023-07-16T10:18:27;5.32;;;3.33;;
13611;SDS011;6877;51.436;6.774;2023-07-16T10:21:02;5.05;;;3.75;;
13611;SDS011;6877;51.436;6.774;2023-07-16T10:23:42;5.07;;;3.58;;
13611;SDS011;6877;51.436;6.774;2023-07-16T10:26:10;5.85;;;3.00;;
13611;SDS011;6877;51.436;6.774;2023-07-16T10:28:39;11.32;;;3.55;;
13611;SDS011;6877;51.436;6.774;2023-07-16T10:31:05;9.55;;;3.38;;
13611;SDS011;6877;51.436;6.774;2023-07-16T10:33:39;7.72;;;3.45;;
13611;SDS011;6877;51.436;6.774;2023-07-16T10:36:07;11.02;;;3.58;;
13611;SDS011;6877;51.436;6.774;2023-07-16T10:38:40;10.45;;;3.85;;
13611;SDS011;6877;51.436;6.774;2023-07-16T10:41:13;7.15;;;4.07;;
13611;SDS011;6877;51.436;6.774;2023-07-16T10:43:40;10.45;;;4.97;;
13611;SDS011;6877;51.436;6.774;2023-07-16T10:46:07;9.02;;;4.20;;
13611;SDS011;6877;51.436;6.774;2023-07-16T10:48:35;7.20;;;3.95;;
13611;SDS011;6877;51.436;6.774;2023-07-16T10:51:01;7.55;;;4.20;;
13611;SDS011;6877;51.436;6.774;2023-07-16T10:53:28;8.48;;;3.78;;
13611;SDS011;6877;51.436;6.774;2023-07-16T10:55:59;7.93;;;4.47;;
13611;SDS011;6877;51.436;6.774;2023-07-16T10:58:27;10.00;;;4.10;;
13611;SDS011;6877;51.436;6.774;2023-07-16T11:00:54;5.70;;;3.70;;
13611;SDS011;6877;51.436;6.774;2023-07-16T11:03:21;8.60;;;3.95;;
13611;SDS011;6877;51.436;6.774;2023-07-16T11:05:47;6.10;;;3.67;;
13611;SDS011;6877;51.436;6.774;2023-07-16T11:08:26;9.38;;;4.22;;
13611;SDS011;6877;51.436;6.774;2023-07-16T11:10:56;7.22;;;3.75;;
13611;SDS011;6877;51.436;6.774;2023-07-16T11:13:28;6.82;;;3.40;;
13611;SDS011;6877;51.436;6.774;2023-07-16T11:16:08;7.10;;;3.25;;
13611;SDS011;6877;51.436;6.774;2023-07-16T11:18:41;5.65;;;3.58;;
13611;SDS011;6877;51.436;6.774;2023-07-16T11:21:13;10.48;;;3.88;;
13611;SDS011;6877;51.436;6.774;2023-07-16T11:23:45;6.05;;;3.35;;
13611;SDS011;6877;51.436;6.774;2023-07-16T11:26:17;6.10;;;2.92;;
13611;SDS011;6877;51.436;6.774;2023-07-16T11:28:43;5.40;;;3.63;;
13611;SDS011;6877;51.436;6.774;2023-07-16T11:33:45;8.85;;;4.15;;
13611;SDS011;6877;51.436;6.774;2023-07-16T11:36:12;5.68;;;3.42;;
13611;SDS011;6877;51.436;6.774;2023-07-16T11:38:39;14.00;;;4.65;;
13611;SDS011;6877;51.436;6.774;2023-07-16T11:41:11;5.65;;;3.17;;
13611;SDS011;6877;51.436;6.774;2023-07-16T11:43:43;8.43;;;3.25;;
13611;SDS011;6877;51.436;6.774;2023-07-16T11:46:15;6.43;;;3.28;;
13611;SDS011;6877;51.436;6.774;2023-07-16T11:48:42;9.20;;;3.63;;
13611;SDS011;6877;51.436;6.774;2023-07-16T11:51:14;5.63;;;3.25;;
13611;SDS011;6877;51.436;6.774;2023-07-16T11:53:41;6.45;;;3.78;;
13611;SDS011;6877;51.436;6.774;2023-07-16T11:56:07;6.32;;;3.40;;
13611;SDS011;6877;51.436;6.774;2023-07-16T11:58:33;6.93;;;3.75;;
13611;SDS011;6877;51.436;6.774;2023-07-16T12:01:00;8.38;;;3.42;;
13611;SDS011;6877;51.436;6.774;2023-07-16T12:03:30;8.15;;;3.92;;
13611;SDS011;6877;51.436;6.774;2023-07-16T12:05:56;8.30;;;3.92;;
13611;SDS011;6877;51.436;6.774;2023-07-16T12:08:23;7.70;;;3.65;;
13611;SDS011;6877;51.436;6.774;2023-07-16T12:10:49;9.77;;;3.13;;
13611;SDS011;6877;51.436;6.774;2023-07-16T12:13:16;10.00;;;3.75;;
13611;SDS011;6877;51.436;6.774;2023-07-16T12:15:48;8.50;;;4.10;;
13611;SDS011;6877;51.436;6.774;2023-07-16T12:18:14;8.77;;;4.05;;
13611;SDS011;6877;51.436;6.774;2023-07-16T12:20:40;8.13;;;3.70;;
13611;SDS011;6877;51.436;6.774;2023-07-16T12:23:07;4.03;;;3.25;;
13611;SDS011;6877;51.436;6.774;2023-07-16T12:25:39;5.60;;;3.45;;
13611;SDS011;6877;51.436;6.774;2023-07-16T12:28:05;6.68;;;2.90;;
13611;SDS011;6877;51.436;6.774;2023-07-16T12:30:31;6.88;;;3.75;;
13611;SDS011;6877;51.436;6.774;2023-07-16T12:32:58;6.68;;;3.28;;
13611;SDS011;6877;51.436;6.774;2023-07-16T12:35:24;8.30;;;3.17;;
13611;SDS011;6877;51.436;6.774;2023-07-16T12:37:51;7.88;;;2.95;;
13611;SDS011;6877;51.436;6.774;2023-07-16T12:40:17;7.60;;;3.47;;
13611;SDS011;6877;51.436;6.774;2023-07-16T12:42:44;5.35;;;3.42;;
13611;SDS011;6877;51.436;6.774;2023-07-16T12:45:11;7.07;;;3.53;;
13611;SDS011;6877;51.436;6.774;2023-07-16T12:47:37;7.60;;;3.15;;
13611;SDS011;6877;51.436;6.774;2023-07-16T12:50:05;9.10;;;4.00;;
13611;SDS011;6877;51.436;6.774;2023-07-16T12:52:31;7.47;;;3.40;;
13611;SDS011;6877;51.436;6.774;2023-07-16T12:54:58;5.18;;;3.15;;
13611;SDS011;6877;51.436;6.774;2023-07-16T12:57:24;9.45;;;4.03;;
13611;SDS011;6877;51.436;6.774;2023-07-16T12:59:51;8.43;;;3.83;;
13611;SDS011;6877;51.436;6.774;2023-07-16T13:02:17;10.35;;;4.50;;
13611;SDS011;6877;51.436;6.774;2023-07-16T13:04:44;6.82;;;3.78;;
13611;SDS011;6877;51.436;6.774;2023-07-16T13:07:17;6.57;;;3.03;;
13611;SDS011;6877;51.436;6.774;2023-07-16T13:09:44;8.32;;;3.25;;
13611;SDS011;6877;51.436;6.774;2023-07-16T13:12:15;4.65;;;2.60;;
13611;SDS011;6877;51.436;6.774;2023-07-16T13:14:41;4.75;;;2.90;;
13611;SDS011;6877;51.436;6.774;2023-07-16T13:17:13;6.70;;;3.10;;
13611;SDS011;6877;51.436;6.774;2023-07-16T13:19:46;6.60;;;2.80;;
13611;SDS011;6877;51.436;6.774;2023-07-16T13:22:12;3.85;;;2.50;;
13611;SDS011;6877;51.436;6.774;2023-07-16T13:24:40;8.15;;;3.22;;
13611;SDS011;6877;51.436;6.774;2023-07-16T13:27:21;5.20;;;2.80;;
13611;SDS011;6877;51.436;6.774;2023-07-16T13:29:49;5.68;;;2.97;;
13611;SDS011;6877;51.436;6.774;2023-07-16T13:32:16;7.10;;;2.72;;
13611;SDS011;6877;51.436;6.774;2023-07-16T13:34:42;6.57;;;2.97;;
13611;SDS011;6877;51.436;6.774;2023-07-16T13:37:09;9.80;;;3.63;;
13611;SDS011;6877;51.436;6.774;2023-07-16T13:39:41;5.28;;;3.30;;
13611;SDS011;6877;51.436;6.774;2023-07-16T13:42:07;8.55;;;3.63;;
13611;SDS011;6877;51.436;6.774;2023-07-16T13:44:34;4.43;;;2.92;;
13611;SDS011;6877;51.436;6.774;2023-07-16T13:47:00;4.82;;;2.88;;
13611;SDS011;6877;51.436;6.774;2023-07-16T13:49:32;7.35;;;2.47;;
13611;SDS011;6877;51.436;6.774;2023-07-16T13:51:58;6.57;;;2.67;;
13611;SDS011;6877;51.436;6.774;2023-07-16T13:54:25;6.40;;;3.25;;
13611;SDS011;6877;51.436;6.774;2023-07-16T13:56:57;7.45;;;3.50;;
13611;SDS011;6877;51.436;6.774;2023-07-16T13:59:23;8.20;;;3.50;;
13611;SDS011;6877;51.436;6.774;2023-07-16T14:01:58;12.18;;;3.65;;
13611;SDS011;6877;51.436;6.774;2023-07-16T14:04:32;5.63;;;3.60;;
13611;SDS011;6877;51.436;6.774;2023-07-16T14:06:59;4.18;;;2.05;;
13611;SDS011;6877;51.436;6.774;2023-07-16T14:09:26;8.93;;;3.05;;
13611;SDS011;6877;51.436;6.774;2023-07-16T14:11:53;3.42;;;2.05;;
13611;SDS011;6877;51.436;6.774;2023-07-16T14:14:24;4.75;;;2.92;;
13611;SDS011;6877;51.436;6.774;2023-07-16T14:16:51;7.38;;;3.15;;
13611;SDS011;6877;51.436;6.774;2023-07-16T14:19:18;4.95;;;2.70;;
13611;SDS011;6877;51.436;6.774;2023-07-16T14:21:44;3.35;;;2.13;;
13611;SDS011;6877;51.436;6.774;2023-07-16T14:24:11;4.85;;;2.50;;
13611;SDS011;6877;51.436;6.774;2023-07-16T14:26:37;6.47;;;2.38;;
13611;SDS011;6877;51.436;6.774;2023-07-16T14:29:04;4.45;;;2.80;;
13611;SDS011;6877;51.436;6.774;2023-07-16T14:31:31;6.25;;;2.97;;
13611;SDS011;6877;51.436;6.774;2023-07-16T14:33:58;5.45;;;3.40;;
13611;SDS011;6877;51.436;6.774;2023-07-16T14:36:24;4.38;;;2.30;;
13611;SDS011;6877;51.436;6.774;2023-07-16T14:38:50;6.68;;;2.30;;
13611;SDS011;6877;51.436;6.774;2023-07-16T14:41:17;6.50;;;3.25;;
13611;SDS011;6877;51.436;6.774;2023-07-16T14:43:44;9.07;;;3.47;;
13611;SDS011;6877;51.436;6.774;2023-07-16T14:46:11;7.25;;;3.08;;
13611;SDS011;6877;51.436;6.774;2023-07-16T14:48:46;6.20;;;2.92;;
13611;SDS011;6877;51.436;6.774;2023-07-16T14:51:13;5.68;;;3.03;;
13611;SDS011;6877;51.436;6.774;2023-07-16T14:53:39;3.15;;;2.60;;
13611;SDS011;6877;51.436;6.774;2023-07-16T14:56:06;6.35;;;3.10;;
13611;SDS011;6877;51.436;6.774;2023-07-16T14:58:37;4.03;;;2.75;;
13611;SDS011;6877;51.436;6.774;2023-07-16T15:01:08;3.67;;;2.08;;
13611;SDS011;6877;51.436;6.774;2023-07-16T15:03:35;4.25;;;2.50;;
13611;SDS011;6877;51.436;6.774;2023-07-16T15:06:08;6.78;;;2.70;;
13611;SDS011;6877;51.436;6.774;2023-07-16T15:08:40;7.95;;;3.60;;
13611;SDS011;6877;51.436;6.774;2023-07-16T15:11:12;9.80;;;3.00;;
13611;SDS011;6877;51.436;6.774;2023-07-16T15:13:38;7.07;;;2.50;;
13611;SDS011;6877;51.436;6.774;2023-07-16T15:16:05;7.18;;;2.95;;
13611;SDS011;6877;51.436;6.774;2023-07-16T15:18:36;6.70;;;2.95;;
13611;SDS011;6877;51.436;6.774;2023-07-16T15:21:02;12.30;;;3.15;;